Time;durP1;ratioP1;P1;durP2;ratioP2;P2;SDS_P1;SDS_P2;PMS_P1;PMS_P2;Temp;Humidity;BMP_temperature;BMP_pressure;BME280_temperature;BME280_humidity;BME280_pressure;Samples;Min_cycle;Max_cycle;Signal;HPM_P1;HPM_P2
2023/07/15 04:17:19;;;;;;;5.78;2.58;;;;;;;;;;4906673;29;20063;-88
2023/07/15 04:19:45;;;;;;;3.85;2.17;;;;;;;;;;4914350;29;20040;-91
2023/07/15 04:22:14;;;;;;;5.07;2.63;;;;;;;;;;4919247;29;20052;-90
2023/07/15 04:24:40;;;;;;;4.23;2.20;;;;;;;;;;4894011;29;20033;-91
2023/07/15 04:27:06;;;;;;;4.10;2.35;;;;;;;;;;4911146;29;20024;-89
2023/07/15 04:29:32;;;;;;;5.63;1.95;;;;;;;;;;4910889;29;20358;-90
2023/07/15 04:31:59;;;;;;;4.10;2.38;;;;;;;;;;4904542;29;20070;-90
2023/07/15 04:34:25;;;;;;;6.18;2.40;;;;;;;;;;4904524;29;20032;-89
2023/07/15 04:36:54;;;;;;;4.10;2.20;;;;;;;;;;4905153;29;20028;-88
2023/07/15 04:39:20;;;;;;;4.47;2.00;;;;;;;;;;4892908;29;20039;-89
2023/07/15 04:41:46;;;;;;;5.32;2.33;;;;;;;;;;4901625;29;20028;-89
2023/07/15 04:44:12;;;;;;;9.43;2.05;;;;;;;;;;4903078;29;20038;-88
2023/07/15 04:46:38;;;;;;;4.78;2.10;;;;;;;;;;4908815;29;20021;-88
2023/07/15 04:49:04;;;;;;;5.90;2.25;;;;;;;;;;4908730;29;20448;-90
2023/07/15 04:51:31;;;;;;;4.78;2.22;;;;;;;;;;4907769;29;20299;-90
2023/07/15 04:54:00;;;;;;;7.95;2.10;;;;;;;;;;4878117;29;20541;-91
2023/07/15 04:56:26;;;;;;;3.72;2.20;;;;;;;;;;4904857;29;20037;-88
2023/07/15 04:58:52;;;;;;;4.07;1.90;;;;;;;;;;4905487;29;20063;-90
2023/07/15 05:01:19;;;;;;;4.53;2.30;;;;;;;;;;4907514;29;20040;-93
2023/07/15 05:03:45;;;;;;;2.92;1.92;;;;;;;;;;4892060;29;20203;-93
2023/07/15 05:06:15;;;;;;;6.57;2.30;;;;;;;;;;4897785;29;20088;-90
2023/07/15 05:08:42;;;;;;;4.18;1.85;;;;;;;;;;4888531;29;20024;-88
2023/07/15 05:11:08;;;;;;;3.83;1.80;;;;;;;;;;4889677;29;20027;-89
2023/07/15 05:13:37;;;;;;;3.65;1.80;;;;;;;;;;4902365;29;20021;-90
2023/07/15 05:16:03;;;;;;;6.18;2.10;;;;;;;;;;4903904;29;20036;-90
2023/07/15 05:18:32;;;;;;;3.78;1.90;;;;;;;;;;4890457;29;20040;-89
2023/07/15 05:20:58;;;;;;;2.92;1.98;;;;;;;;;;4878589;29;20040;-89
2023/07/15 05:23:28;;;;;;;4.57;1.95;;;;;;;;;;4889228;29;20072;-88
2023/07/15 05:25:56;;;;;;;6.07;2.30;;;;;;;;;;4887317;29;20035;-89
2023/07/15 05:28:22;;;;;;;4.25;2.00;;;;;;;;;;4902897;29;20033;-87
2023/07/15 05:30:48;;;;;;;5.65;1.90;;;;;;;;;;4905240;29;20040;-90
2023/07/15 05:33:14;;;;;;;4.68;2.03;;;;;;;;;;4904034;29;20502;-89
2023/07/15 05:35:40;;;;;;;4.22;2.10;;;;;;;;;;4902267;29;20117;-89
2023/07/15 05:38:06;;;;;;;4.32;2.00;;;;;;;;;;4902738;29;20032;-87
2023/07/15 05:40:32;;;;;;;3.97;1.95;;;;;;;;;;4899733;29;20065;-87
2023/07/15 05:43:06;;;;;;;3.65;1.98;;;;;;;;;;4911904;29;20043;-86
2023/07/15 05:45:32;;;;;;;11.10;2.60;;;;;;;;;;4900767;29;20035;-87
2023/07/15 05:47:58;;;;;;;7.18;2.60;;;;;;;;;;4908435;29;20036;-87
2023/07/15 05:50:24;;;;;;;9.50;2.63;;;;;;;;;;4906887;29;20020;-88
2023/07/15 05:52:50;;;;;;;7.78;2.47;;;;;;;;;;4910262;29;20092;-91
2023/07/15 05:55:18;;;;;;;5.03;2.10;;;;;;;;;;4897688;29;20029;-88
2023/07/15 05:57:44;;;;;;;3.92;1.90;;;;;;;;;;4881382;29;20511;-85
2023/07/15 06:00:11;;;;;;;11.35;3.05;;;;;;;;;;4903222;29;20464;-87
2023/07/15 06:02:40;;;;;;;7.03;2.72;;;;;;;;;;4883636;29;20038;-88
2023/07/15 06:05:07;;;;;;;7.38;2.30;;;;;;;;;;4902927;29;20029;-87
2023/07/15 06:07:33;;;;;;;6.20;2.40;;;;;;;;;;4889769;29;20044;-88
2023/07/15 06:09:59;;;;;;;6.00;2.03;;;;;;;;;;4902423;29;20037;-88
2023/07/15 06:12:25;;;;;;;6.68;2.10;;;;;;;;;;4901883;29;20024;-87
2023/07/15 06:15:02;;;;;;;6.85;2.40;;;;;;;;;;4892589;29;20029;-88
2023/07/15 06:17:34;;;;;;;5.70;2.20;;;;;;;;;;4900250;29;20040;-88
2023/07/15 06:20:00;;;;;;;6.95;2.30;;;;;;;;;;4900799;29;20072;-90
2023/07/15 06:22:29;;;;;;;5.07;2.42;;;;;;;;;;4898190;29;20507;-89
2023/07/15 06:25:00;;;;;;;6.68;2.33;;;;;;;;;;4897815;29;20021;-91
2023/07/15 13:53:20;;;;;;;6.38;4.50;;;23.60;99.90;;;;;;4867830;29;20397;-79
2023/07/15 13:55:49;;;;;;;7.75;4.13;;;23.70;99.90;;;;;;4842409;29;20060;-80
2023/07/15 14:00:54;;;;;;;8.00;4.72;;;23.70;99.90;;;;;;5454624;23;20052;-82
2023/07/15 14:03:32;;;;;;;;;;;23.60;99.90;;;;;;4880053;29;20493;-80
2023/07/15 14:06:06;;;;;;;8.55;4.32;;;23.40;99.90;;;;;;4881895;29;20406;-82
2023/07/15 14:08:43;;;;;;;7.65;4.80;;;23.20;99.90;;;;;;4882731;29;20141;-84
2023/07/15 14:11:14;;;;;;;8.82;7.13;;;;;;;;;;4877391;29;20602;-80
2023/07/15 14:13:41;;;;;;;8.48;5.18;;;23.20;99.90;;;;;;4879271;29;20037;-82
2023/07/15 14:16:07;;;;;;;8.73;4.70;;;;;;;;;;4895868;29;20514;-81
2023/07/15 14:18:33;;;;;;;8.77;5.45;;;;;;;;;;4887189;29;20028;-82
2023/07/15 14:20:59;;;;;;;20.02;13.40;;;;;;;;;;4894446;29;20293;-83
2023/07/15 14:23:25;;;;;;;8.63;5.55;;;;;;;;;;4884070;29;20020;-81
2023/07/15 14:25:52;;;;;;;8.25;5.32;;;;;;;;;;4896702;29;20028;-83
2023/07/15 14:28:18;;;;;;;6.85;5.20;;;;;;;;;;4896950;29;20047;-82
2023/07/15 14:30:44;;;;;;;8.38;5.75;;;;;;;;;;4882069;29;20032;-84
2023/07/15 14:33:19;;;;;;;16.45;6.93;;;;;;;;;;4893295;29;20044;-84
2023/07/15 14:35:45;;;;;;;13.27;6.22;;;;;;;;;;4899070;29;20031;-85
2023/07/15 14:38:11;;;;;;;10.48;5.88;;;;;;;;;;4899528;29;20024;-86
2023/07/15 14:40:37;;;;;;;9.70;5.90;;;;;;;;;;4885041;29;20039;-85
2023/07/15 14:43:03;;;;;;;8.57;5.95;;;;;;;;;;4883454;29;20036;-84
2023/07/15 14:45:30;;;;;;;9.60;5.75;;;;;;;;;;4880391;29;20028;-85
2023/07/15 14:47:56;;;;;;;10.25;5.70;;;;;;;;;;4881597;29;20040;-86
2023/07/15 14:50:29;;;;;;;9.70;5.85;;;;;;;;;;4877820;29;20032;-83
2023/07/15 14:52:55;;;;;;;9.77;5.85;;;;;;;;;;4892827;29;20576;-87
2023/07/15 14:55:24;;;;;;;8.45;5.45;;;;;;;;;;4890674;29;20029;-87
2023/07/15 14:58:00;;;;;;;9.85;5.95;;;;;;;;;;4896094;29;20586;-84
2023/07/15 15:00:57;;;;;;;;;;;;;;;;;;;;;
2023/07/15 15:06:22;;;;;;;7.60;4.25;;;;;;;;;;4919917;23;20052;-87
2023/07/15 15:08:48;;;;;;;9.13;4.50;;;;;;;;;;4897981;29;20055;-87
2023/07/15 15:11:17;;;;;;;5.75;4.05;;;;;;;;;;4868288;29;20029;-89
2023/07/15 15:13:46;;;;;;;7.33;4.10;;;;;;;;;;4877786;29;20090;-89
2023/07/15 15:16:12;;;;;;;5.45;3.30;;;;;;;;;;4879928;29;20044;-87
2023/07/15 15:18:39;;;;;;;7.78;3.95;;;;;;;;;;4876983;29;20029;-90
2023/07/15 15:21:05;;;;;;;7.00;3.78;;;;;;;;;;4883608;29;20041;-88
2023/07/15 15:23:31;;;;;;;6.43;3.50;;;;;;;;;;4883027;29;20109;-89
2023/07/15 15:25:57;;;;;;;7.18;4.03;;;;;;;;;;4867408;29;20053;-86
2023/07/15 15:28:24;;;;;;;6.05;4.00;;;;;;;;;;4868963;29;20040;-87
2023/07/15 15:30:50;;;;;;;8.43;4.30;;;;;;;;;;4871751;29;20105;-89
2023/07/15 15:33:18;;;;;;;5.40;4.15;;;;;;;;;;4882915;29;20037;-90
2023/07/15 15:35:44;;;;;;;6.75;4.43;;;;;;;;;;4890168;29;20047;-90
2023/07/15 15:38:10;;;;;;;6.15;3.50;;;;;;;;;;4893075;29;20036;-89
2023/07/15 15:40:36;;;;;;;6.15;3.47;;;;;;;;;;4896413;29;20025;-88
2023/07/15 15:43:02;;;;;;;5.90;3.30;;;;;;;;;;4898805;29;20032;-90
2023/07/15 15:45:28;;;;;;;8.27;4.43;;;;;;;;;;4900992;29;20041;-90
2023/07/15 15:47:57;;;;;;;5.57;4.10;;;;;;;;;;4886524;29;20048;-90
2023/07/15 15:50:23;;;;;;;6.78;4.85;;;;;;;;;;4884573;29;20029;-90
2023/07/15 15:52:49;;;;;;;6.45;4.65;;;;;;;;;;4881986;29;20104;-90
2023/07/15 15:55:16;;;;;;;5.63;4.07;;;;;;;;;;4888469;29;20086;-88
2023/07/15 15:57:42;;;;;;;6.78;3.85;;;;;;;;;;4882440;29;20029;-88
2023/07/15 16:00:10;;;;;;;9.55;5.35;;;;;;;;;;4882529;29;20037;-90
2023/07/15 16:02:36;;;;;;;13.77;5.53;;;;;;;;;;4883968;29;20047;-87
2023/07/15 16:05:02;;;;;;;9.55;5.43;;;;;;;;;;4882687;29;20080;-89
2023/07/15 16:07:28;;;;;;;6.97;4.13;;;;;;;;;;4889561;29;20045;-88
2023/07/15 16:09:54;;;;;;;12.25;5.80;;;;;;;;;;4864741;29;20060;-89
2023/07/15 16:12:20;;;;;;;8.25;4.30;;;;;;;;;;4891793;29;20032;-92
2023/07/15 16:14:46;;;;;;;5.20;3.40;;;;;;;;;;4867661;29;20656;-88
2023/07/15 16:17:12;;;;;;;5.82;3.72;;;;;;;;;;4886937;29;20040;-88
2023/07/15 16:19:38;;;;;;;6.50;4.15;;;;;;;;;;4880446;29;20033;-90
2023/07/15 16:22:04;;;;;;;8.35;3.63;;;;;;;;;;4877844;29;20039;-90
2023/07/15 16:24:33;;;;;;;8.77;3.67;;;;;;;;;;4852971;29;20029;-87
2023/07/15 16:26:59;;;;;;;7.97;4.07;;;;;;;;;;4885276;29;20022;-91
2023/07/15 16:29:28;;;;;;;4.15;3.05;;;;;;;;;;4889619;29;20039;-87
2023/07/15 16:31:59;;;;;;;7.00;3.55;;;;;;;;;;4884083;29;20037;-88
2023/07/15 16:34:25;;;;;;;4.93;3.17;;;;;;;;;;4889179;29;20116;-89
2023/07/15 16:36:51;;;;;;;8.25;3.38;;;;;;;;;;4886710;29;20064;-86
2023/07/15 16:39:17;;;;;;;5.63;3.30;;;;;;;;;;4890493;29;20128;-89
2023/07/15 16:41:43;;;;;;;4.82;3.13;;;;;;;;;;4884560;29;20053;-90
2023/07/15 16:44:09;;;;;;;6.40;3.03;;;;;;;;;;4890289;29;20073;-90
2023/07/15 16:46:36;;;;;;;4.60;2.80;;;;;;;;;;4888564;29;20048;-87
2023/07/15 16:49:05;;;;;;;5.88;3.20;;;;;;;;;;4873939;29;20052;-90
2023/07/15 16:51:31;;;;;;;6.83;3.03;;;;;;;;;;4891516;29;20037;-87
2023/07/15 16:53:57;;;;;;;5.82;3.15;;;;;;;;;;4869293;29;20277;-88
2023/07/15 16:56:35;;;;;;;7.22;4.03;;;;;;;;;;4885143;29;20418;-90
2023/07/15 17:06:02;;;;;;;4.68;2.83;;;;;;;;;;4789783;29;20412;-91
2023/07/15 17:15:47;;;;;;;;;;;;;;;;;;;;;
2023/07/15 17:18:38;;;;;;;4.50;3.00;;;;;;;;;;4816317;29;20109;-88
2023/07/15 17:24:34;;;;;;;3.85;2.40;;;;;;;;;;4882102;29;20112;-89
2023/07/15 20:40:28;;;;;;;6.05;3.90;;;;;;;;;;511956;27;20376;-86
2023/07/15 20:42:57;;;;;;;9.30;4.45;;;;;;;;;;4892714;29;20075;-87
2023/07/15 20:45:33;;;;;;;10.00;4.40;;;;;;;;;;4884463;29;20013;-87
2023/07/15 20:47:59;;;;;;;12.93;5.07;;;;;;;;;;4869255;29;20394;-87
2023/07/15 20:55:49;;;;;;;6.35;3.42;;;;;;;;;;5375959;23;20060;-88
2023/07/15 21:03:27;;;;;;;6.85;4.10;;;;;;;;;;5047470;24;20029;-85
2023/07/15 21:06:03;;;;;;;8.32;3.60;;;;;;;;;;4910710;29;20021;-87
2023/07/15 21:08:29;;;;;;;6.93;4.10;;;;;;;;;;4869681;29;20092;-86
2023/07/15 21:11:17;;;;;;;7.72;4.15;;;;;;;;;;4904216;29;20031;-86
2023/07/15 21:13:43;;;;;;;7.53;3.90;;;;;;;;;;4894038;29;20009;-86
2023/07/15 21:16:15;;;;;;;10.18;3.88;;;;;;;;;;4902833;29;20028;-87
2023/07/15 21:18:41;;;;;;;6.90;3.55;;;;;;;;;;4911020;29;20028;-87
2023/07/15 21:21:10;;;;;;;6.35;2.97;;;;;;;;;;4892874;29;20032;-86
2023/07/15 21:23:39;;;;;;;6.25;3.30;;;;;;;;;;4882132;29;20024;-85
2023/07/15 21:26:05;;;;;;;7.25;2.70;;;;;;;;;;4885354;29;20021;-87
2023/07/15 21:28:35;;;;;;;3.78;2.20;;;;;;;;;;4911802;29;20049;-87
2023/07/15 21:31:01;;;;;;;6.20;2.97;;;;;;;;;;4903916;29;20089;-86
2023/07/15 21:33:28;;;;;;;6.60;2.85;;;;;;;;;;4915503;29;20020;-86
2023/07/15 21:35:54;;;;;;;5.22;2.90;;;;;;;;;;4896730;29;20020;-87
2023/07/15 21:38:23;;;;;;;6.00;2.72;;;;;;;;;;4892001;29;20033;-87
2023/07/15 21:40:49;;;;;;;4.43;2.83;;;;;;;;;;4891803;29;20028;-88
2023/07/15 21:43:16;;;;;;;6.68;3.17;;;;;;;;;;4910626;29;20028;-86
2023/07/15 21:45:43;;;;;;;5.50;2.78;;;;;;;;;;4888175;29;20036;-86
2023/07/15 21:48:09;;;;;;;7.03;2.97;;;;;;;;;;4885954;29;20045;-86
2023/07/15 21:50:39;;;;;;;5.60;2.63;;;;;;;;;;4890809;29;20009;-86
2023/07/15 22:06:03;;;;;;;6.68;2.63;;;;;;;;;;5181473;23;20049;-87
2023/07/15 22:08:39;;;;;;;24.15;13.75;;;;;;;;;;4899737;29;20014;-86
2023/07/15 22:11:19;;;;;;;7.80;3.40;;;;;;;;;;4884747;29;20014;-85
2023/07/15 22:13:47;;;;;;;6.43;3.00;;;;;;;;;;4887101;29;20009;-86
2023/07/15 22:16:16;;;;;;;4.07;2.67;;;;;;;;;;4889483;29;20005;-87
2023/07/15 22:18:44;;;;;;;5.45;2.60;;;;;;;;;;4887559;29;20042;-85
2023/07/15 23:20:09;;;;;;;5.10;1.83;;;;;;;;;;4906164;29;20113;-86
2023/07/15 23:22:35;;;;;;;3.25;1.98;;;;;;;;;;4902057;29;20088;-84
2023/07/15 23:25:02;;;;;;;6.68;2.05;;;;;;;;;;4880812;29;20032;-87
2023/07/15 23:27:28;;;;;;;4.68;2.13;;;;;;;;;;4884989;29;20032;-85
2023/07/15 23:29:54;;;;;;;3.40;1.67;;;;;;;;;;4881573;29;20024;-84
2023/07/15 23:32:24;;;;;;;4.90;1.88;;;;;;;;;;4884798;29;20119;-87
2023/07/15 23:34:52;;;;;;;;;;;19.10;99.90;;;;;;4901413;29;20041;-86
2023/07/15 23:37:19;;;;;;;3.70;2.00;;;;;;;;;;4887163;29;19912;-84
2023/07/15 23:39:45;;;;;;;6.00;2.20;;;;;;;;;;4902066;29;20080;-84
2023/07/15 23:42:11;;;;;;;5.00;2.10;;;;;;;;;;4888862;29;20384;-83
2023/07/15 23:44:37;;;;;;;3.83;2.20;;;;;;;;;;4874254;29;20052;-89
2023/07/15 23:47:03;;;;;;;5.43;2.33;;;;;;;;;;4869115;29;20026;-85
2023/07/15 23:49:39;;;;;;;4.85;2.10;;;;;;;;;;4886024;29;20061;-86
2023/07/15 23:52:07;;;;;;;4.97;2.10;;;;;;;;;;4869121;29;20056;-88
2023/07/15 23:54:36;;;;;;;4.65;2.13;;;;;;;;;;4872662;29;20033;-84
2023/07/15 23:57:03;;;;;;;5.82;2.10;;;;;;;;;;4884901;29;20113;-86
2023/07/15 23:59:30;;;;;;;5.40;2.00;;;;;;;;;;4893670;29;20029;-89
